createdAt,value
2023-04-11T00:01:14.032Z,7.65
2023-04-11T00:06:15.772Z,7.15
2023-04-11T00:11:17.493Z,5.90
2023-04-11T00:16:19.687Z,6.05
2023-04-11T00:21:21.382Z,6.97
2023-04-11T00:26:23.067Z,6.35
2023-04-11T00:31:24.780Z,7.30
2023-04-11T00:36:27.193Z,6.88
2023-04-11T00:41:29.054Z,6.80
2023-04-11T00:46:32.113Z,6.63
2023-04-11T00:51:33.876Z,6.63
2023-04-11T00:56:35.729Z,6.65
2023-04-11T01:01:38.425Z,6.18
2023-04-11T01:06:40.255Z,5.95
2023-04-11T01:11:42.668Z,5.38
2023-04-11T01:16:47.162Z,6.72
2023-04-11T01:21:50.648Z,6.00
2023-04-11T01:26:52.792Z,6.13
2023-04-11T01:31:55.060Z,6.45
2023-04-11T01:36:56.852Z,6.47
2023-04-11T01:42:01.138Z,5.88
2023-04-11T01:47:03.325Z,5.72
2023-04-11T01:52:04.946Z,6.78
2023-04-11T01:57:07.043Z,6.57
2023-04-11T02:02:08.853Z,6.50
2023-04-11T02:07:10.539Z,6.68
2023-04-11T02:12:12.163Z,6.18
2023-04-11T02:17:14.230Z,5.55
2023-04-11T02:22:16.273Z,5.55
2023-04-11T02:27:17.887Z,5.13
2023-04-11T02:32:19.701Z,5.38
2023-04-11T02:37:21.870Z,5.65
2023-04-11T02:42:23.551Z,5.28
2023-04-11T02:47:25.397Z,5.07
2023-04-11T02:52:28.710Z,5.25
2023-04-11T02:57:30.451Z,5.43
2023-04-11T03:02:33.691Z,4.32
2023-04-11T03:07:38.573Z,4.63
2023-04-11T03:12:40.656Z,4.80
2023-04-11T03:17:45.890Z,4.57
2023-04-11T03:22:49.764Z,5.25
2023-04-11T03:27:53.079Z,5.25
2023-04-11T03:32:55.192Z,5.40
2023-04-11T03:37:56.897Z,4.32
2023-04-11T03:43:04.419Z,5.22
2023-04-11T03:48:08.605Z,4.60
2023-04-11T03:53:22.980Z,5.35
2023-04-11T03:58:29.823Z,4.80
2023-04-11T04:03:31.676Z,4.88
2023-04-11T04:08:34.929Z,5.75
2023-04-11T04:13:36.977Z,6.35
2023-04-11T04:18:50.714Z,5.03
2023-04-11T04:23:54.405Z,5.78
2023-04-11T04:29:10.239Z,5.70
2023-04-11T04:34:29.300Z,5.57
2023-04-11T04:39:34.170Z,5.07
2023-04-11T04:44:36.943Z,5.20
2023-04-11T04:49:46.652Z,6.10
2023-04-11T04:54:50.555Z,5.80
2023-04-11T04:59:52.214Z,6.45
2023-04-11T05:04:57.011Z,6.30
2023-04-11T05:09:59.748Z,7.07
2023-04-11T05:15:03.576Z,6.80
2023-04-11T05:20:09.064Z,7.13
2023-04-11T05:25:12.072Z,6.82
2023-04-11T05:30:16.825Z,6.82
2023-04-11T05:35:20.091Z,7.57
2023-04-11T05:40:27.494Z,9.85
2023-04-11T05:45:29.213Z,8.52
2023-04-11T05:50:31.032Z,10.70
2023-04-11T05:55:35.042Z,8.48
2023-04-11T06:00:38.346Z,8.63
2023-04-11T06:05:40.104Z,7.25
2023-04-11T06:10:42.117Z,7.15
2023-04-11T06:15:43.956Z,7.78
2023-04-11T06:20:47.128Z,7.80
2023-04-11T06:25:48.821Z,8.05
2023-04-11T06:30:50.616Z,8.85
2023-04-11T06:35:52.340Z,7.65
2023-04-11T06:40:56.336Z,8.20
2023-04-11T06:45:58.042Z,10.45
2023-04-11T06:50:59.703Z,7.82
2023-04-11T06:56:01.503Z,7.70
2023-04-11T07:01:03.183Z,7.57
2023-04-11T07:06:04.948Z,7.93
2023-04-11T07:11:06.965Z,9.13
2023-04-11T07:16:09.076Z,8.43
2023-04-11T07:21:14.749Z,6.25
2023-04-11T07:26:17.026Z,5.30
2023-04-11T07:31:21.570Z,4.63
2023-04-11T07:36:23.340Z,5.00
2023-04-11T07:41:25.020Z,4.32
2023-04-11T07:46:26.691Z,4.60
2023-04-11T07:51:28.399Z,5.15
2023-04-11T07:56:30.037Z,4.93
2023-04-11T08:01:31.708Z,4.78
2023-04-11T08:06:33.533Z,4.47
2023-04-11T08:11:35.323Z,4.63
2023-04-11T08:16:37.018Z,4.28
2023-04-11T08:21:38.703Z,4.53
2023-04-11T08:26:40.357Z,3.65
2023-04-11T08:31:45.238Z,4.45
2023-04-11T08:36:47.085Z,3.42
2023-04-11T08:41:48.773Z,3.85
2023-04-11T08:46:50.369Z,3.80
2023-04-11T08:51:53.832Z,3.35
2023-04-11T08:56:55.482Z,2.95
2023-04-11T09:02:09.324Z,2.75
2023-04-11T09:07:11.991Z,2.50
2023-04-11T09:12:13.713Z,2.78
2023-04-11T09:17:17.011Z,2.47
2023-04-11T09:22:18.721Z,2.17
2023-04-11T09:27:24.448Z,2.40
2023-04-11T09:32:30.785Z,2.80
2023-04-11T09:37:49.384Z,2.50
2023-04-11T09:43:04.289Z,2.42
2023-04-11T09:48:06.232Z,2.55
2023-04-11T09:53:09.033Z,2.58
2023-04-11T09:58:11.282Z,2.50
2023-04-11T10:03:12.928Z,2.22
2023-04-11T10:08:22.545Z,2.90
2023-04-11T10:13:43.521Z,1.90
2023-04-11T10:18:54.136Z,2.00
2023-04-11T10:24:23.329Z,2.42
2023-04-11T10:29:30.641Z,2.58
2023-04-11T10:34:32.334Z,2.03
2023-04-11T10:39:52.103Z,2.28
2023-04-11T10:45:18.516Z,2.50
2023-04-11T10:50:26.339Z,1.77
2023-04-11T10:55:29.758Z,2.95
2023-04-11T11:01:21.245Z,1.15
2023-04-11T11:06:38.101Z,3.55
2023-04-11T11:11:44.761Z,3.28
2023-04-11T11:16:46.666Z,1.48
2023-04-11T11:21:48.301Z,2.05
2023-04-11T11:26:50.525Z,1.30
2023-04-11T11:31:53.447Z,1.33
2023-04-11T11:36:56.588Z,0.82
2023-04-11T11:41:58.516Z,2.05
2023-04-11T11:47:03.760Z,1.40
2023-04-11T11:52:05.415Z,1.55
2023-04-11T11:57:07.062Z,1.40
2023-04-11T12:02:08.767Z,1.67
2023-04-11T12:07:11.187Z,1.70
2023-04-11T12:12:15.997Z,1.65
2023-04-11T12:17:17.605Z,1.25
2023-04-11T12:22:19.242Z,1.77
2023-04-11T12:27:21.023Z,1.00
2023-04-11T12:32:23.967Z,1.35
2023-04-11T12:37:25.733Z,1.65
2023-04-11T12:42:27.691Z,1.75
2023-04-11T12:47:29.345Z,1.27
2023-04-11T12:52:31.054Z,1.48
2023-04-11T12:57:32.845Z,1.25
2023-04-11T13:02:42.128Z,1.05
2023-04-11T13:07:46.309Z,1.33
2023-04-11T13:12:48.598Z,1.58
2023-04-11T13:17:50.750Z,1.50
2023-04-11T13:22:52.383Z,1.30
2023-04-11T13:27:53.993Z,1.77
2023-04-11T13:32:55.769Z,1.40
2023-04-11T13:37:57.789Z,1.25
2023-04-11T13:42:59.417Z,1.63
2023-04-11T13:48:01.128Z,1.90
2023-04-11T13:53:02.873Z,2.08
2023-04-11T13:58:04.478Z,3.67
2023-04-11T14:03:06.474Z,1.85
2023-04-11T14:08:08.228Z,1.83
2023-04-11T14:13:11.594Z,1.80
2023-04-11T14:18:13.503Z,1.60
2023-04-11T14:23:16.595Z,2.25
2023-04-11T14:28:18.480Z,1.77
2023-04-11T14:33:20.097Z,2.00
2023-04-11T14:38:21.700Z,1.50
2023-04-11T14:43:23.326Z,2.03
2023-04-11T14:48:28.870Z,2.47
2023-04-11T14:53:30.545Z,1.92
2023-04-11T14:58:32.760Z,1.40
2023-04-11T15:03:34.964Z,1.27
2023-04-11T15:08:37.127Z,1.95
2023-04-11T15:13:39.003Z,1.20
2023-04-11T15:18:40.820Z,1.67
2023-04-11T15:23:43.345Z,1.92
2023-04-11T15:28:46.143Z,1.58
2023-04-11T15:33:47.985Z,1.90
2023-04-11T15:38:49.676Z,2.25
2023-04-11T15:43:51.325Z,2.20
2023-04-11T15:48:53.010Z,1.83
2023-04-11T15:53:55.049Z,2.60
2023-04-11T15:58:56.909Z,2.85
2023-04-11T16:03:59.129Z,2.17
2023-04-11T16:09:00.984Z,2.30
2023-04-11T16:14:02.732Z,1.42
2023-04-11T16:19:06.542Z,1.80
2023-04-11T16:24:08.203Z,1.77
2023-04-11T16:29:09.876Z,1.38
2023-04-11T16:34:11.837Z,1.60
2023-04-11T16:39:13.613Z,2.40
2023-04-11T16:44:16.170Z,2.13
2023-04-11T16:49:18.317Z,2.47
2023-04-11T16:54:19.948Z,2.25
2023-04-11T16:59:22.554Z,2.03
2023-04-11T17:04:24.352Z,2.70
2023-04-11T17:09:26.217Z,3.20
2023-04-11T17:14:28.079Z,2.42
2023-04-11T17:19:29.731Z,2.58
2023-04-11T17:24:31.707Z,2.90
2023-04-11T17:29:33.323Z,2.30
2023-04-11T17:34:35.218Z,4.32
2023-04-11T17:39:36.848Z,3.95
2023-04-11T17:44:38.570Z,4.88
2023-04-11T17:49:40.504Z,4.50
2023-04-11T17:54:42.184Z,4.18
2023-04-11T17:59:45.887Z,3.20
2023-04-11T18:04:49.225Z,3.20
2023-04-11T18:09:51.489Z,3.40
2023-04-11T18:14:54.276Z,2.80
2023-04-11T18:19:56.828Z,3.30
2023-04-11T18:25:02.054Z,3.30
2023-04-11T18:30:06.063Z,4.03
2023-04-11T18:35:08.185Z,4.25
2023-04-11T18:40:12.614Z,2.72
2023-04-11T18:45:15.650Z,2.55
2023-04-11T18:50:18.562Z,1.80
2023-04-11T18:55:20.820Z,1.70
2023-04-11T19:00:23.934Z,1.75
2023-04-11T19:05:25.913Z,1.98
2023-04-11T19:10:27.594Z,2.53
2023-04-11T19:15:29.380Z,2.38
2023-04-11T19:20:30.977Z,2.25
2023-04-11T19:25:32.579Z,2.33
2023-04-11T19:30:35.158Z,2.28
2023-04-11T19:35:36.900Z,2.30
2023-04-11T19:40:38.638Z,2.58
2023-04-11T19:45:40.430Z,2.30
2023-04-11T19:50:42.105Z,3.10
2023-04-11T19:55:45.538Z,3.45
2023-04-11T20:00:47.929Z,3.50
2023-04-11T20:05:49.857Z,4.22
2023-04-11T20:10:52.045Z,4.85
2023-04-11T20:15:53.748Z,4.85
2023-04-11T20:20:55.400Z,3.70
2023-04-11T20:25:57.037Z,3.85
2023-04-11T20:30:59.305Z,4.00
2023-04-11T20:36:02.804Z,3.90
2023-04-11T20:41:06.329Z,4.13
2023-04-11T20:46:08.655Z,4.15
2023-04-11T20:51:11.344Z,3.97
2023-04-11T20:56:14.800Z,3.45
2023-04-11T21:01:16.610Z,3.88
2023-04-11T21:06:18.272Z,3.67
2023-04-11T21:11:19.894Z,3.78
2023-04-11T21:16:21.816Z,4.80
2023-04-11T21:21:23.734Z,4.13
2023-04-11T21:26:25.931Z,5.82
2023-04-11T21:31:27.561Z,4.72
2023-04-11T21:36:29.226Z,5.68
2023-04-11T21:41:30.851Z,5.30
2023-04-11T21:46:32.542Z,5.18
2023-04-11T21:51:34.188Z,4.43
2023-04-11T21:56:35.839Z,4.07
2023-04-11T22:01:37.620Z,4.57
2023-04-11T22:06:46.229Z,5.18
2023-04-11T22:11:47.934Z,4.05
2023-04-11T22:16:49.581Z,4.68
2023-04-11T22:21:55.848Z,5.32
2023-04-11T22:26:58.500Z,5.18
2023-04-11T22:32:03.790Z,4.13
2023-04-11T22:37:05.592Z,3.78
2023-04-11T22:42:07.383Z,4.65
2023-04-11T22:47:16.128Z,4.15
2023-04-11T22:52:24.310Z,4.85
2023-04-11T22:57:26.113Z,5.13
2023-04-11T23:02:31.765Z,4.80
2023-04-11T23:07:34.543Z,5.03
2023-04-11T23:12:36.467Z,5.03
2023-04-11T23:17:38.294Z,5.45
2023-04-11T23:22:42.360Z,4.45
2023-04-11T23:27:45.094Z,4.63
2023-04-11T23:32:47.253Z,5.15
2023-04-11T23:37:49.259Z,3.90
2023-04-11T23:42:51.629Z,4.82
2023-04-11T23:47:53.329Z,5.22
2023-04-11T23:52:54.975Z,4.72
2023-04-11T23:57:56.645Z,5.00
